createdAt,value
2019-02-23T00:00:20.031Z,39.90
2019-02-23T00:05:26.979Z,39.60
2019-02-23T00:10:32.463Z,39.70
2019-02-23T00:15:37.877Z,39.40
2019-02-23T00:20:43.366Z,39.40
2019-02-23T00:25:48.793Z,39.40
2019-02-23T00:30:54.214Z,39.40
2019-02-23T00:35:59.610Z,39.30
2019-02-23T00:41:05.180Z,39.20
2019-02-23T00:46:10.609Z,39.50
2019-02-23T00:51:16.028Z,39.70
2019-02-23T00:56:21.434Z,39.80
2019-02-23T01:01:26.878Z,40.10
2019-02-23T01:06:32.242Z,40.60
2019-02-23T01:11:37.632Z,40.20
2019-02-23T01:16:43.039Z,40.30
2019-02-23T01:21:48.445Z,40.70
2019-02-23T01:26:53.871Z,40.90
2019-02-23T01:31:59.323Z,40.80
2019-02-23T01:37:04.807Z,40.60
2019-02-23T01:42:10.218Z,41.00
2019-02-23T01:47:15.537Z,41.40
2019-02-23T01:52:20.891Z,41.50
2019-02-23T01:57:26.233Z,41.60
2019-02-23T02:02:32.805Z,41.50
2019-02-23T02:07:38.274Z,41.50
2019-02-23T02:12:43.767Z,41.30
2019-02-23T02:17:50.180Z,41.30
2019-02-23T02:22:55.661Z,41.30
2019-02-23T02:28:01.073Z,41.10
2019-02-23T02:33:06.426Z,40.70
2019-02-23T02:38:11.871Z,40.20
2019-02-23T02:43:17.242Z,39.80
2019-02-23T02:48:22.575Z,39.50
2019-02-23T02:53:27.996Z,40.10
2019-02-23T02:58:33.331Z,40.30
2019-02-23T03:03:38.685Z,40.70
2019-02-23T03:08:44.169Z,40.80
2019-02-23T03:13:49.556Z,41.00
2019-02-23T03:18:56.027Z,40.80
2019-02-23T03:24:01.353Z,40.30
2019-02-23T03:29:06.735Z,40.90
2019-02-23T03:34:12.169Z,40.50
2019-02-23T03:39:17.743Z,40.70
2019-02-23T03:44:23.081Z,40.90
2019-02-23T03:49:28.505Z,40.50
2019-02-23T03:54:33.920Z,40.90
2019-02-23T03:59:39.413Z,40.40
2019-02-23T04:04:44.831Z,40.30
2019-02-23T04:09:50.234Z,40.30
2019-02-23T04:14:55.775Z,40.80
2019-02-23T04:20:01.193Z,40.20
2019-02-23T04:25:10.429Z,40.10
2019-02-23T04:30:15.835Z,40.40
2019-02-23T04:35:21.331Z,40.50
2019-02-23T04:40:26.815Z,40.90
2019-02-23T04:45:32.212Z,40.50
2019-02-23T04:50:37.543Z,40.90
2019-02-23T04:55:43.028Z,40.80
2019-02-23T05:00:48.428Z,41.20
2019-02-23T05:05:53.846Z,40.90
2019-02-23T05:10:59.396Z,41.10
2019-02-23T05:16:04.804Z,40.70
2019-02-23T05:21:10.203Z,40.30
2019-02-23T05:26:15.543Z,40.50
2019-02-23T05:31:22.247Z,40.80
2019-02-23T05:36:27.852Z,41.50
2019-02-23T05:41:33.272Z,42.00
2019-02-23T05:46:38.864Z,42.00
2019-02-23T05:51:44.363Z,42.10
2019-02-23T05:56:49.756Z,41.50
2019-02-23T06:01:55.151Z,41.50
2019-02-23T06:07:00.474Z,41.40
2019-02-23T06:12:05.854Z,41.30
2019-02-23T06:17:11.327Z,41.30
2019-02-23T06:22:16.688Z,40.30
2019-02-23T06:27:22.109Z,40.20
2019-02-23T06:32:27.519Z,39.70
2019-02-23T06:37:32.932Z,38.60
2019-02-23T06:42:38.291Z,37.70
2019-02-23T06:47:43.703Z,34.70
2019-02-23T06:52:49.132Z,30.10
2019-02-23T06:57:54.551Z,29.40
2019-02-23T07:02:59.902Z,28.30
2019-02-23T07:08:06.693Z,28.20
2019-02-23T07:13:12.031Z,27.10
2019-02-23T07:18:17.440Z,28.90
2019-02-23T07:23:23.023Z,31.90
2019-02-23T07:28:28.363Z,34.30
2019-02-23T07:33:33.783Z,35.70
2019-02-23T07:38:39.123Z,36.20
2019-02-23T07:43:44.543Z,34.70
2019-02-23T07:48:49.878Z,32.20
2019-02-23T07:53:55.290Z,29.10
2019-02-23T07:59:00.635Z,28.40
2019-02-23T08:04:06.164Z,27.20
2019-02-23T08:09:11.913Z,28.20
2019-02-23T08:14:17.464Z,30.00
2019-02-23T08:19:22.949Z,31.30
2019-02-23T08:24:28.289Z,30.60
2019-02-23T08:29:33.642Z,29.60
2019-02-23T08:34:38.986Z,26.70
2019-02-23T08:39:44.339Z,25.40
2019-02-23T08:44:49.820Z,30.20
2019-02-23T08:49:55.229Z,29.90
2019-02-23T08:55:00.711Z,28.00
2019-02-23T09:00:14.898Z,28.10
2019-02-23T09:05:20.414Z,28.70
2019-02-23T09:10:25.902Z,28.50
2019-02-23T09:15:32.398Z,26.90
2019-02-23T09:20:37.732Z,28.10
2019-02-23T09:25:43.075Z,27.60
2019-02-23T09:30:48.489Z,29.00
2019-02-23T09:35:53.897Z,27.70
2019-02-23T09:40:59.246Z,28.20
2019-02-23T09:46:04.892Z,26.10
2019-02-23T09:51:10.586Z,24.10
2019-02-23T09:56:15.922Z,25.30
2019-02-23T10:01:21.421Z,25.10
2019-02-23T10:06:26.829Z,24.00
2019-02-23T10:11:32.394Z,24.60
2019-02-23T10:16:37.876Z,24.80
2019-02-23T10:21:43.260Z,21.90
2019-02-23T10:26:49.280Z,23.20
2019-02-23T10:31:54.860Z,26.20
2019-02-23T10:37:01.093Z,28.70
2019-02-23T10:42:06.453Z,27.70
2019-02-23T10:47:12.706Z,26.90
2019-02-23T10:52:18.527Z,26.70
2019-02-23T10:57:24.876Z,27.20
2019-02-23T11:02:30.292Z,27.10
2019-02-23T11:07:35.997Z,26.60
2019-02-23T11:12:41.425Z,28.30
2019-02-23T11:17:48.334Z,29.70
2019-02-23T11:22:53.906Z,29.20
2019-02-23T11:27:59.381Z,29.10
2019-02-23T11:33:04.836Z,29.00
2019-02-23T11:38:11.196Z,29.50
2019-02-23T11:43:16.674Z,28.00
2019-02-23T11:48:22.019Z,27.10
2019-02-23T11:53:27.393Z,26.00
2019-02-23T11:58:33.354Z,29.00
2019-02-23T12:03:38.775Z,29.60
2019-02-23T12:08:45.503Z,28.30
2019-02-23T12:13:50.843Z,27.30
2019-02-23T12:18:56.184Z,26.50
2019-02-23T12:24:06.107Z,26.10
2019-02-23T12:29:08.598Z,25.80
2019-02-23T12:34:14.024Z,25.10
2019-02-23T12:39:19.427Z,23.90
2019-02-23T12:44:24.843Z,25.30
2019-02-23T12:49:30.250Z,21.90
2019-02-23T12:54:35.753Z,22.10
2019-02-23T12:59:41.376Z,22.50
2019-02-23T13:04:46.788Z,20.70
2019-02-23T13:09:52.251Z,19.30
2019-02-23T13:15:09.943Z,20.20
2019-02-23T13:20:39.622Z,18.50
2019-02-23T13:25:56.887Z,19.60
2019-02-23T13:31:20.218Z,18.50
2019-02-23T13:37:02.699Z,20.40
2019-02-23T13:42:36.932Z,21.20
2019-02-23T13:47:54.479Z,23.90
2019-02-23T13:53:22.399Z,24.40
2019-02-23T13:58:34.108Z,25.50
2019-02-23T14:03:58.693Z,26.80
2019-02-23T14:09:28.612Z,26.60
2019-02-23T14:14:56.569Z,25.90
2019-02-23T14:20:22.919Z,25.80
2019-02-23T14:25:40.648Z,26.20
2019-02-23T14:30:58.271Z,25.50
2019-02-23T14:36:36.783Z,24.30
2019-02-23T14:41:54.516Z,23.70
2019-02-23T14:47:03.089Z,24.50
2019-02-23T14:52:32.551Z,25.40
2019-02-23T14:58:03.623Z,26.00
2019-02-23T15:03:30.176Z,25.50
2019-02-23T15:09:09.112Z,26.40
2019-02-23T15:14:32.329Z,27.10
2019-02-23T15:20:16.299Z,27.50
2019-02-23T15:25:57.756Z,26.80
2019-02-23T15:31:15.052Z,27.40
2019-02-23T15:36:44.885Z,27.20
2019-02-23T15:42:05.058Z,27.20
2019-02-23T15:47:34.475Z,28.10
2019-02-23T15:52:40.088Z,28.10
2019-02-23T15:57:46.445Z,28.20
2019-02-23T16:02:51.859Z,29.00
2019-02-23T16:07:57.197Z,28.50
2019-02-23T16:13:02.682Z,29.30
2019-02-23T16:18:08.055Z,29.20
2019-02-23T16:23:13.475Z,28.90
2019-02-23T16:28:18.937Z,29.00
2019-02-23T16:33:24.376Z,32.60
2019-02-23T16:38:29.884Z,33.20
2019-02-23T16:43:35.387Z,34.00
2019-02-23T16:48:41.703Z,32.50
2019-02-23T16:53:48.962Z,32.60
2019-02-23T16:58:54.312Z,32.70
2019-02-23T17:03:59.781Z,32.40
2019-02-23T17:09:06.434Z,31.40
2019-02-23T17:14:13.440Z,33.60
2019-02-23T17:19:20.108Z,35.70
2019-02-23T17:24:26.763Z,36.00
2019-02-23T17:29:32.119Z,37.80
2019-02-23T17:34:37.487Z,36.80
2019-02-23T17:39:42.976Z,36.10
2019-02-23T17:44:48.696Z,37.00
2019-02-23T17:49:54.318Z,36.60
2019-02-23T17:54:59.751Z,36.40
2019-02-23T18:00:08.300Z,36.60
2019-02-23T18:05:14.304Z,35.50
2019-02-23T18:10:19.995Z,35.60
2019-02-23T18:15:25.433Z,35.50
2019-02-23T18:20:30.783Z,36.10
2019-02-23T18:25:36.755Z,38.10
2019-02-23T18:30:42.581Z,38.10
2019-02-23T18:35:49.124Z,37.30
2019-02-23T18:40:54.758Z,37.30
2019-02-23T18:46:00.241Z,37.00
2019-02-23T18:51:05.690Z,36.10
2019-02-23T18:56:11.234Z,36.60
2019-02-23T19:01:16.731Z,36.90
2019-02-23T19:06:22.273Z,36.70
2019-02-23T19:11:27.770Z,36.60
2019-02-23T19:16:33.463Z,36.00
2019-02-23T19:21:39.296Z,37.20
2019-02-23T19:26:45.122Z,37.50
2019-02-23T19:31:51.306Z,37.00
2019-02-23T19:36:56.747Z,37.80
2019-02-23T19:42:03.126Z,38.90
2019-02-23T19:47:09.872Z,39.60
2019-02-23T19:52:17.272Z,40.20
2019-02-23T19:57:22.747Z,39.20
2019-02-23T20:02:28.474Z,39.40
2019-02-23T20:07:34.059Z,39.30
2019-02-23T20:12:39.711Z,40.40
2019-02-23T20:17:46.994Z,40.40
2019-02-23T20:22:52.677Z,40.80
2019-02-23T20:27:58.517Z,40.10
2019-02-23T20:33:04.137Z,39.60
2019-02-23T20:38:19.598Z,39.00
2019-02-23T20:43:25.150Z,38.80
2019-02-23T20:48:30.711Z,41.30
2019-02-23T20:53:36.420Z,42.10
2019-02-23T20:58:41.839Z,42.70
2019-02-23T21:03:47.183Z,42.40
2019-02-23T21:08:52.559Z,41.90
2019-02-23T21:13:57.981Z,41.30
2019-02-23T21:19:03.526Z,41.20
2019-02-23T21:24:09.030Z,42.20
2019-02-23T21:29:14.788Z,41.90
2019-02-23T21:34:21.131Z,42.80
2019-02-23T21:39:26.567Z,43.00
2019-02-23T21:44:32.019Z,43.30
2019-02-23T21:49:37.354Z,43.00
2019-02-23T21:54:42.686Z,42.80
2019-02-23T21:59:48.021Z,42.40
2019-02-23T22:04:53.449Z,43.50
2019-02-23T22:09:59.016Z,43.70
2019-02-23T22:15:06.394Z,42.70
2019-02-23T22:20:12.671Z,43.00
2019-02-23T22:25:18.011Z,43.60
2019-02-23T22:30:23.731Z,43.90
2019-02-23T22:35:29.089Z,44.40
2019-02-23T22:40:36.046Z,45.20
2019-02-23T22:45:41.396Z,45.70
2019-02-23T22:50:46.739Z,45.40
2019-02-23T22:55:52.160Z,45.50
2019-02-23T23:01:00.191Z,45.80
2019-02-23T23:06:06.271Z,46.10
2019-02-23T23:11:11.777Z,46.20
2019-02-23T23:16:17.224Z,46.50
2019-02-23T23:21:22.706Z,46.70
2019-02-23T23:26:28.180Z,46.60
2019-02-23T23:31:33.663Z,46.80
2019-02-23T23:36:39.008Z,45.70
2019-02-23T23:41:44.651Z,45.20
2019-02-23T23:46:50.291Z,44.80
2019-02-23T23:51:55.789Z,44.40
2019-02-23T23:57:01.329Z,43.40
